createdAt,value
2018-11-14T00:02:13.160Z,10.47
2018-11-14T00:04:41.139Z,14.93
2018-11-14T00:07:09.131Z,12.00
2018-11-14T00:09:37.759Z,11.03
2018-11-14T00:12:06.381Z,11.83
2018-11-14T00:14:34.311Z,15.90
2018-11-14T00:17:02.303Z,8.93
2018-11-14T00:19:30.317Z,9.13
2018-11-14T00:21:58.235Z,15.20
2018-11-14T00:24:26.189Z,13.23
2018-11-14T00:26:54.121Z,11.87
2018-11-14T00:29:22.182Z,12.27
2018-11-14T00:31:50.123Z,10.87
2018-11-14T00:34:18.071Z,9.27
2018-11-14T00:36:46.040Z,16.70
2018-11-14T00:39:13.986Z,13.13
2018-11-14T00:41:42.432Z,8.30
2018-11-14T00:44:10.368Z,16.10
2018-11-14T00:46:38.800Z,12.50
2018-11-14T00:49:06.707Z,19.47
2018-11-14T00:51:34.647Z,11.43
2018-11-14T00:54:02.575Z,12.13
2018-11-14T00:56:30.564Z,12.50
2018-11-14T00:58:58.475Z,12.00
2018-11-14T01:01:26.481Z,11.30
2018-11-14T01:03:54.519Z,7.90
2018-11-14T01:06:22.436Z,9.53
2018-11-14T01:08:50.367Z,9.30
2018-11-14T01:11:18.315Z,13.90
2018-11-14T01:13:46.245Z,8.33
2018-11-14T01:16:14.195Z,12.10
2018-11-14T01:18:42.118Z,11.30
2018-11-14T01:21:10.055Z,9.07
2018-11-14T01:23:37.999Z,13.00
2018-11-14T01:26:05.980Z,15.63
2018-11-14T01:28:33.932Z,9.00
2018-11-14T01:31:01.897Z,9.93
2018-11-14T01:33:29.840Z,12.30
2018-11-14T01:35:58.114Z,9.67
2018-11-14T01:38:25.773Z,16.63
2018-11-14T01:40:53.712Z,11.70
2018-11-14T01:43:21.639Z,14.60
2018-11-14T01:45:49.583Z,12.77
2018-11-14T01:48:17.533Z,13.43
2018-11-14T01:50:45.531Z,10.00
2018-11-14T01:53:13.477Z,15.47
2018-11-14T01:55:41.396Z,8.17
2018-11-14T01:58:09.355Z,7.90
2018-11-14T02:00:37.291Z,14.83
2018-11-14T02:03:05.608Z,9.60
2018-11-14T02:05:33.551Z,9.93
2018-11-14T02:08:01.516Z,12.60
2018-11-14T02:10:29.472Z,13.47
2018-11-14T02:12:57.427Z,13.70
2018-11-14T02:15:25.379Z,15.57
2018-11-14T02:17:53.672Z,15.33
2018-11-14T02:20:21.642Z,13.93
2018-11-14T02:22:49.646Z,11.70
2018-11-14T02:25:17.919Z,8.23
2018-11-14T02:27:45.867Z,15.93
2018-11-14T02:30:17.836Z,12.13
2018-11-14T02:32:45.842Z,9.47
2018-11-14T02:35:13.736Z,11.70
2018-11-14T02:37:42.767Z,10.47
2018-11-14T02:40:13.092Z,11.63
2018-11-14T02:42:41.267Z,13.47
2018-11-14T02:45:09.621Z,19.87
2018-11-14T02:47:37.601Z,12.30
2018-11-14T02:50:06.349Z,15.10
2018-11-14T02:52:34.304Z,18.33
2018-11-14T02:55:02.253Z,15.03
2018-11-14T02:57:30.200Z,14.47
2018-11-14T02:59:58.178Z,14.83
2018-11-14T03:02:26.107Z,13.67
2018-11-14T03:04:54.223Z,18.87
2018-11-14T03:07:22.152Z,14.50
2018-11-14T03:09:50.108Z,16.93
2018-11-14T03:12:18.090Z,14.17
2018-11-14T03:14:46.041Z,12.17
2018-11-14T03:17:14.136Z,11.30
2018-11-14T03:19:42.190Z,14.03
2018-11-14T03:22:10.138Z,14.60
2018-11-14T03:24:38.084Z,10.10
2018-11-14T03:27:06.295Z,10.63
2018-11-14T03:29:34.264Z,19.80
2018-11-14T03:32:02.476Z,8.73
2018-11-14T03:34:30.448Z,9.07
2018-11-14T03:36:58.436Z,11.60
2018-11-14T03:39:26.416Z,11.60
2018-11-14T03:41:54.351Z,7.40
2018-11-14T03:44:22.310Z,12.80
2018-11-14T03:46:50.284Z,15.07
2018-11-14T03:49:18.244Z,10.53
2018-11-14T03:51:46.222Z,11.63
2018-11-14T03:54:14.219Z,15.00
2018-11-14T03:56:42.204Z,12.83
2018-11-14T03:59:10.209Z,9.80
2018-11-14T04:01:38.172Z,11.97
2018-11-14T04:04:06.327Z,7.90
2018-11-14T04:06:34.322Z,13.83
2018-11-14T04:09:02.350Z,10.27
2018-11-14T04:11:30.291Z,12.00
2018-11-14T04:13:58.269Z,12.40
2018-11-14T04:16:26.218Z,12.33
2018-11-14T04:18:54.204Z,11.47
2018-11-14T04:21:22.209Z,14.40
2018-11-14T04:23:50.912Z,12.00
2018-11-14T04:26:18.984Z,12.97
2018-11-14T04:28:47.492Z,15.27
2018-11-14T04:31:15.752Z,13.30
2018-11-14T04:33:43.928Z,11.97
2018-11-14T04:36:11.884Z,10.03
2018-11-14T04:38:39.856Z,11.37
2018-11-14T04:41:07.784Z,11.27
2018-11-14T04:43:35.717Z,16.30
2018-11-14T04:46:03.660Z,14.33
2018-11-14T04:48:31.640Z,12.03
2018-11-14T04:50:59.580Z,12.90
2018-11-14T04:53:27.527Z,14.10
2018-11-14T04:55:55.460Z,12.40
2018-11-14T04:58:23.411Z,12.17
2018-11-14T05:00:51.368Z,18.83
2018-11-14T05:03:19.307Z,13.27
2018-11-14T05:05:47.241Z,16.53
2018-11-14T05:08:15.235Z,14.13
2018-11-14T05:10:43.231Z,12.77
2018-11-14T05:13:11.227Z,13.40
2018-11-14T05:15:39.141Z,17.93
2018-11-14T05:18:07.095Z,15.97
2018-11-14T05:20:35.043Z,17.87
2018-11-14T05:23:03.009Z,18.80
2018-11-14T05:25:30.946Z,14.83
2018-11-14T05:27:58.935Z,14.50
2018-11-14T05:30:26.923Z,14.77
2018-11-14T05:32:54.893Z,16.10
2018-11-14T05:35:22.875Z,15.60
2018-11-14T05:37:50.956Z,14.77
2018-11-14T05:40:20.035Z,17.80
2018-11-14T05:42:48.581Z,18.30
2018-11-14T05:45:18.807Z,22.17
2018-11-14T05:47:46.759Z,20.97
2018-11-14T05:50:15.943Z,19.27
2018-11-14T05:52:43.896Z,21.53
2018-11-14T05:55:12.388Z,20.93
2018-11-14T05:57:40.356Z,25.27
2018-11-14T06:00:17.247Z,25.63
2018-11-14T06:02:45.836Z,21.27
2018-11-14T06:05:13.784Z,19.93
2018-11-14T06:07:41.771Z,19.47
2018-11-14T06:10:11.352Z,26.23
2018-11-14T06:12:39.567Z,21.93
2018-11-14T06:15:09.763Z,21.00
2018-11-14T06:17:37.668Z,27.57
2018-11-14T06:20:06.291Z,22.17
2018-11-14T06:22:34.223Z,24.93
2018-11-14T06:25:17.916Z,26.20
2018-11-14T06:27:45.867Z,23.37
2018-11-14T06:30:13.820Z,19.50
2018-11-14T06:32:41.780Z,21.00
2018-11-14T06:35:09.720Z,25.77
2018-11-14T06:37:37.761Z,26.37
2018-11-14T06:40:07.464Z,24.47
2018-11-14T06:42:35.670Z,28.57
2018-11-14T06:45:03.776Z,22.97
2018-11-14T06:47:31.808Z,29.67
2018-11-14T06:49:59.769Z,24.60
2018-11-14T06:52:27.729Z,31.10
2018-11-14T06:54:55.871Z,25.90
2018-11-14T06:57:23.852Z,26.23
2018-11-14T06:59:52.175Z,28.17
2018-11-14T07:02:20.183Z,25.07
2018-11-14T07:04:48.159Z,23.83
2018-11-14T07:07:16.107Z,25.77
2018-11-14T07:09:44.080Z,27.63
2018-11-14T07:12:12.077Z,32.30
2018-11-14T07:14:39.996Z,28.40
2018-11-14T07:17:07.936Z,30.20
2018-11-14T07:19:35.870Z,34.50
2018-11-14T07:22:03.799Z,29.80
2018-11-14T07:24:31.767Z,27.33
2018-11-14T07:26:59.685Z,31.63
2018-11-14T07:29:27.652Z,29.60
2018-11-14T07:31:55.883Z,28.70
2018-11-14T07:34:23.780Z,30.37
2018-11-14T07:36:51.714Z,26.50
2018-11-14T07:39:19.682Z,25.83
2018-11-14T07:41:47.606Z,26.70
2018-11-14T07:44:15.552Z,25.40
2018-11-14T07:46:43.544Z,21.60
2018-11-14T07:49:11.517Z,17.77
2018-11-14T07:51:39.441Z,20.67
2018-11-14T07:54:07.415Z,19.73
2018-11-14T07:56:35.351Z,27.20
2018-11-14T07:59:03.281Z,22.30
2018-11-14T08:01:31.219Z,19.03
2018-11-14T08:03:59.158Z,23.43
2018-11-14T08:06:27.108Z,19.07
2018-11-14T08:08:55.052Z,16.50
2018-11-14T08:11:22.979Z,17.87
2018-11-14T08:13:50.915Z,19.53
2018-11-14T08:16:18.863Z,17.83
2018-11-14T08:18:46.843Z,13.50
2018-11-14T08:21:14.779Z,15.47
2018-11-14T08:23:42.787Z,13.50
2018-11-14T08:26:10.720Z,12.67
2018-11-14T08:28:38.649Z,12.07
2018-11-14T08:31:06.635Z,16.60
2018-11-14T08:33:34.559Z,10.70
2018-11-14T08:36:02.502Z,13.90
2018-11-14T08:38:30.444Z,11.10
2018-11-14T08:40:58.428Z,12.63
2018-11-14T08:43:26.351Z,11.77
2018-11-14T08:45:54.307Z,13.90
2018-11-14T08:48:22.241Z,13.13
2018-11-14T08:50:50.141Z,11.90
2018-11-14T08:53:18.060Z,13.87
2018-11-14T08:55:45.990Z,11.90
2018-11-14T08:58:14.112Z,9.93
2018-11-14T09:00:42.039Z,12.20
2018-11-14T09:03:11.483Z,11.87
2018-11-14T09:05:39.376Z,10.83
2018-11-14T09:08:07.315Z,10.70
2018-11-14T09:10:35.247Z,12.73
2018-11-14T09:13:03.188Z,10.93
2018-11-14T09:15:31.076Z,10.43
2018-11-14T09:17:58.994Z,8.03
2018-11-14T09:20:27.992Z,9.00
2018-11-14T09:22:55.931Z,9.10
2018-11-14T09:25:27.369Z,7.63
2018-11-14T09:27:55.322Z,10.37
2018-11-14T09:30:24.251Z,11.47
2018-11-14T09:32:52.222Z,11.57
2018-11-14T09:35:21.167Z,10.57
2018-11-14T09:37:49.096Z,11.87
2018-11-14T09:40:18.383Z,9.90
2018-11-14T09:42:46.368Z,12.07
2018-11-14T09:45:19.631Z,10.73
2018-11-14T09:47:47.551Z,9.90
2018-11-14T09:50:17.015Z,14.10
2018-11-14T09:52:46.423Z,11.33
2018-11-14T09:55:14.500Z,12.10
2018-11-14T09:57:43.059Z,9.43
2018-11-14T10:00:13.915Z,10.30
2018-11-14T10:02:42.374Z,9.93
2018-11-14T10:05:12.712Z,13.47
2018-11-14T10:07:40.802Z,9.87
2018-11-14T10:10:10.196Z,12.33
2018-11-14T10:12:38.246Z,7.70
2018-11-14T10:15:08.243Z,10.53
2018-11-14T10:17:36.223Z,9.93
2018-11-14T10:20:04.484Z,7.33
2018-11-14T10:22:32.376Z,6.97
2018-11-14T10:25:00.334Z,7.77
2018-11-14T10:27:28.210Z,9.30
2018-11-14T10:29:56.109Z,9.30
2018-11-14T10:32:24.007Z,11.10
2018-11-14T10:34:51.953Z,8.60
2018-11-14T10:37:19.876Z,8.93
2018-11-14T10:39:47.777Z,7.73
2018-11-14T10:42:15.712Z,7.67
2018-11-14T10:44:43.735Z,7.47
2018-11-14T10:47:11.656Z,6.40
2018-11-14T10:49:39.584Z,8.13
2018-11-14T10:52:07.512Z,6.60
2018-11-14T10:54:35.420Z,6.73
2018-11-14T10:57:03.340Z,6.37
2018-11-14T10:59:31.243Z,5.93
2018-11-14T11:02:04.563Z,7.13
2018-11-14T11:04:37.759Z,7.70
2018-11-14T11:07:11.214Z,6.93
2018-11-14T11:09:44.510Z,5.27
2018-11-14T11:12:17.872Z,6.60
2018-11-14T11:14:51.230Z,7.10
2018-11-14T11:17:25.391Z,5.83
2018-11-14T11:19:53.519Z,5.90
2018-11-14T11:22:21.451Z,5.37
2018-11-14T11:24:49.488Z,6.00
2018-11-14T11:27:17.388Z,7.53
2018-11-14T11:29:45.284Z,5.23
2018-11-14T11:32:13.305Z,6.13
2018-11-14T11:34:41.101Z,4.57
2018-11-14T11:37:09.019Z,9.90
2018-11-14T11:39:36.919Z,7.60
2018-11-14T11:42:04.919Z,8.00
2018-11-14T11:44:33.033Z,5.87
2018-11-14T11:47:00.807Z,5.70
2018-11-14T11:49:28.768Z,5.93
2018-11-14T11:51:56.668Z,7.90
2018-11-14T11:54:24.560Z,7.50
2018-11-14T11:56:52.487Z,6.43
2018-11-14T11:59:20.428Z,8.40
2018-11-14T12:01:48.291Z,5.20
2018-11-14T12:04:16.252Z,7.10
2018-11-14T12:06:44.192Z,10.70
2018-11-14T12:09:12.678Z,6.50
2018-11-14T12:11:40.587Z,8.07
2018-11-14T12:14:08.948Z,8.20
2018-11-14T12:16:36.891Z,4.93
2018-11-14T12:19:05.077Z,6.10
2018-11-14T12:21:32.940Z,5.97
2018-11-14T12:24:00.831Z,8.93
2018-11-14T12:26:28.751Z,6.47
2018-11-14T12:28:56.651Z,6.70
2018-11-14T12:31:24.536Z,7.87
2018-11-14T12:33:52.443Z,7.00
2018-11-14T12:36:20.331Z,5.40
2018-11-14T12:38:48.259Z,9.70
2018-11-14T12:41:16.118Z,8.50
2018-11-14T12:43:44.003Z,6.80
2018-11-14T12:46:12.052Z,6.10
2018-11-14T12:48:39.936Z,7.30
2018-11-14T12:51:07.872Z,5.80
2018-11-14T12:53:35.820Z,5.23
2018-11-14T12:56:03.731Z,4.23
2018-11-14T12:58:31.936Z,4.93
2018-11-14T13:00:59.852Z,8.47
2018-11-14T13:03:27.785Z,7.10
2018-11-14T13:05:55.687Z,7.90
2018-11-14T13:08:23.629Z,9.00
2018-11-14T13:10:51.515Z,7.23
2018-11-14T13:13:19.419Z,5.97
2018-11-14T13:15:47.335Z,4.33
2018-11-14T13:18:15.280Z,5.00
2018-11-14T13:20:43.176Z,13.60
2018-11-14T13:23:11.087Z,8.17
2018-11-14T13:25:39.006Z,5.13
2018-11-14T13:28:06.898Z,4.83
2018-11-14T13:30:34.827Z,7.00
2018-11-14T13:33:02.736Z,7.27
2018-11-14T13:35:30.616Z,5.37
2018-11-14T13:37:58.511Z,6.83
2018-11-14T13:40:26.440Z,3.90
2018-11-14T13:42:54.346Z,4.93
2018-11-14T13:45:22.296Z,4.77
2018-11-14T13:47:50.199Z,5.50
2018-11-14T13:50:20.432Z,5.63
2018-11-14T13:52:48.168Z,6.13
2018-11-14T13:55:17.290Z,4.93
2018-11-14T13:57:46.455Z,7.13
2018-11-14T14:00:15.454Z,3.93
2018-11-14T14:02:44.156Z,6.10
2018-11-14T14:05:13.664Z,6.47
2018-11-14T14:07:41.556Z,5.27
2018-11-14T14:10:10.615Z,6.40
2018-11-14T14:12:38.502Z,6.80
2018-11-14T14:15:08.771Z,6.00
2018-11-14T14:17:36.660Z,5.57
2018-11-14T14:20:05.515Z,6.07
2018-11-14T14:22:33.428Z,3.27
2018-11-14T14:25:01.352Z,7.37
2018-11-14T14:27:29.268Z,5.60
2018-11-14T14:29:57.199Z,7.23
2018-11-14T14:32:25.148Z,7.20
2018-11-14T14:34:53.065Z,7.17
2018-11-14T14:37:21.037Z,3.57
2018-11-14T14:39:48.912Z,5.97
2018-11-14T14:42:16.839Z,3.47
2018-11-14T14:44:44.736Z,5.17
2018-11-14T14:47:16.404Z,5.30
2018-11-14T14:49:44.381Z,8.30
2018-11-14T14:52:12.315Z,6.77
2018-11-14T14:54:40.252Z,5.00
2018-11-14T14:57:08.179Z,5.77
2018-11-14T14:59:36.095Z,2.70
2018-11-14T15:02:04.052Z,5.80
2018-11-14T15:04:31.995Z,4.80
2018-11-14T15:06:59.930Z,4.13
2018-11-14T15:09:27.886Z,4.57
2018-11-14T15:11:55.794Z,4.73
2018-11-14T15:14:23.715Z,4.90
2018-11-14T15:16:51.631Z,9.30
2018-11-14T15:19:19.536Z,6.60
2018-11-14T15:21:47.489Z,7.60
2018-11-14T15:24:15.713Z,5.17
2018-11-14T15:26:43.731Z,3.47
2018-11-14T15:29:11.699Z,4.77
2018-11-14T15:31:39.679Z,4.30
2018-11-14T15:34:07.976Z,5.73
2018-11-14T15:36:36.584Z,5.30
2018-11-14T15:39:07.180Z,5.40
2018-11-14T15:41:35.120Z,5.47
2018-11-14T15:44:03.044Z,6.03
2018-11-14T15:46:31.011Z,6.37
2018-11-14T15:48:58.979Z,3.53
2018-11-14T15:51:26.990Z,4.30
2018-11-14T15:53:54.883Z,3.40
2018-11-14T15:56:22.815Z,6.00
2018-11-14T15:58:50.727Z,4.07
2018-11-14T16:01:18.640Z,5.90
2018-11-14T16:03:46.588Z,4.97
2018-11-14T16:06:14.487Z,5.83
2018-11-14T16:08:42.447Z,6.47
2018-11-14T16:11:10.363Z,9.00
2018-11-14T16:13:38.268Z,9.23
2018-11-14T16:16:06.210Z,4.80
2018-11-14T16:18:37.615Z,4.67
2018-11-14T16:21:05.684Z,7.23
2018-11-14T16:23:33.600Z,5.27
2018-11-14T16:26:01.541Z,5.43
2018-11-14T16:28:29.456Z,9.23
2018-11-14T16:30:57.412Z,6.23
2018-11-14T16:33:25.355Z,8.53
2018-11-14T16:35:53.295Z,7.40
2018-11-14T16:38:21.287Z,11.23
2018-11-14T16:40:49.159Z,9.87
2018-11-14T16:43:17.083Z,8.17
2018-11-14T16:45:45.021Z,8.13
2018-11-14T16:48:12.987Z,11.53
2018-11-14T16:50:40.914Z,9.70
2018-11-14T16:53:08.841Z,8.53
2018-11-14T16:55:36.879Z,11.20
2018-11-14T16:58:05.331Z,10.87
2018-11-14T17:00:33.328Z,10.70
2018-11-14T17:03:01.311Z,8.57
2018-11-14T17:05:30.415Z,13.20
2018-11-14T17:07:58.331Z,9.53
2018-11-14T17:10:26.271Z,9.60
2018-11-14T17:12:58.552Z,11.13
2018-11-14T17:15:27.068Z,9.07
2018-11-14T17:17:55.036Z,8.50
2018-11-14T17:20:23.303Z,9.57
2018-11-14T17:22:52.210Z,13.40
2018-11-14T17:25:20.249Z,9.70
2018-11-14T17:27:48.568Z,11.10
2018-11-14T17:30:18.046Z,10.37
2018-11-14T17:32:46.031Z,11.53
2018-11-14T17:35:14.729Z,10.40
2018-11-14T17:37:43.487Z,13.93
2018-11-14T17:40:18.852Z,12.20
2018-11-14T17:42:47.599Z,14.53
2018-11-14T17:45:17.659Z,11.50
2018-11-14T17:47:46.010Z,14.03
2018-11-14T17:50:17.347Z,13.03
2018-11-14T17:52:45.552Z,15.33
2018-11-14T17:55:14.465Z,14.53
2018-11-14T17:57:42.713Z,13.97
2018-11-14T18:00:13.223Z,11.87
2018-11-14T18:02:42.155Z,14.40
2018-11-14T18:05:12.315Z,20.33
2018-11-14T18:07:40.500Z,16.57
2018-11-14T18:10:09.823Z,21.10
2018-11-14T18:12:37.990Z,20.37
2018-11-14T18:15:06.761Z,21.03
2018-11-14T18:17:34.697Z,20.17
2018-11-14T18:20:02.685Z,20.57
2018-11-14T18:22:30.626Z,20.53
2018-11-14T18:24:58.591Z,24.40
2018-11-14T18:27:26.547Z,25.53
2018-11-14T18:29:54.542Z,21.93
2018-11-14T18:32:22.403Z,25.33
2018-11-14T18:34:50.331Z,26.83
2018-11-14T18:37:18.299Z,25.30
2018-11-14T18:39:46.291Z,27.50
2018-11-14T18:42:14.187Z,24.07
2018-11-14T18:44:42.219Z,24.07
2018-11-14T18:47:10.210Z,24.93
2018-11-14T18:49:38.220Z,23.20
2018-11-14T18:52:06.519Z,23.77
2018-11-14T18:54:34.531Z,23.50
2018-11-14T18:57:02.500Z,23.17
2018-11-14T18:59:30.436Z,24.03
2018-11-14T19:01:58.388Z,21.97
2018-11-14T19:04:26.360Z,21.80
2018-11-14T19:06:54.317Z,26.67
2018-11-14T19:09:22.272Z,23.93
2018-11-14T19:11:50.198Z,22.70
2018-11-14T19:14:18.135Z,28.40
2018-11-14T19:16:46.137Z,24.43
2018-11-14T19:19:14.179Z,23.70
2018-11-14T19:21:42.015Z,24.23
2018-11-14T19:24:09.987Z,24.40
2018-11-14T19:26:37.955Z,26.20
2018-11-14T19:29:05.931Z,24.17
2018-11-14T19:31:33.856Z,23.73
2018-11-14T19:34:01.867Z,23.00
2018-11-14T19:36:29.782Z,24.90
2018-11-14T19:38:57.744Z,24.20
2018-11-14T19:41:25.691Z,32.53
2018-11-14T19:43:53.699Z,27.57
2018-11-14T19:46:21.678Z,25.50
2018-11-14T19:48:49.592Z,28.67
2018-11-14T19:51:17.516Z,27.80
2018-11-14T19:53:45.479Z,28.37
2018-11-14T19:56:13.412Z,25.47
2018-11-14T19:58:41.401Z,29.90
2018-11-14T20:01:09.408Z,33.90
2018-11-14T20:03:37.360Z,29.00
2018-11-14T20:06:05.380Z,30.43
2018-11-14T20:08:33.356Z,31.57
2018-11-14T20:11:01.300Z,30.67
2018-11-14T20:13:29.249Z,31.30
2018-11-14T20:15:57.218Z,36.87
2018-11-14T20:18:25.173Z,32.63
2018-11-14T20:20:53.110Z,33.60
2018-11-14T20:23:21.051Z,33.70
2018-11-14T20:25:49.160Z,34.37
2018-11-14T20:28:16.981Z,34.07
2018-11-14T20:30:44.997Z,33.13
2018-11-14T20:33:13.696Z,32.73
2018-11-14T20:35:41.727Z,31.17
2018-11-14T20:38:09.838Z,32.33
2018-11-14T20:40:39.206Z,37.73
2018-11-14T20:43:07.443Z,31.10
2018-11-14T20:45:35.515Z,31.50
2018-11-14T20:48:03.431Z,33.90
2018-11-14T20:50:31.372Z,31.63
2018-11-14T20:53:01.843Z,37.70
2018-11-14T20:55:30.353Z,35.63
2018-11-14T20:57:58.599Z,36.07
2018-11-14T21:00:27.898Z,46.90
2018-11-14T21:02:56.221Z,38.43
2018-11-14T21:05:24.769Z,39.07
2018-11-14T21:07:53.015Z,31.67
2018-11-14T21:10:22.310Z,39.03
2018-11-14T21:12:51.983Z,33.57
2018-11-14T21:15:21.363Z,38.30
2018-11-14T21:17:49.950Z,33.70
2018-11-14T21:20:17.886Z,33.30
2018-11-14T21:22:45.846Z,34.23
2018-11-14T21:25:14.943Z,29.40
2018-11-14T21:27:43.864Z,34.60
2018-11-14T21:30:13.349Z,36.07
2018-11-14T21:32:41.645Z,29.77
2018-11-14T21:35:16.138Z,33.03
2018-11-14T21:37:45.060Z,31.73
2018-11-14T21:40:13.304Z,32.70
2018-11-14T21:42:41.308Z,31.30
2018-11-14T21:45:11.403Z,30.43
2018-11-14T21:47:44.685Z,32.13
2018-11-14T21:50:12.597Z,30.20
2018-11-14T21:52:40.596Z,29.50
2018-11-14T21:55:09.448Z,29.23
2018-11-14T21:57:38.191Z,28.87
2018-11-14T22:00:08.811Z,29.47
2018-11-14T22:02:36.750Z,30.17
2018-11-14T22:05:05.185Z,30.80
2018-11-14T22:07:33.129Z,29.63
2018-11-14T22:10:01.073Z,32.90
2018-11-14T22:12:29.023Z,31.37
2018-11-14T22:14:56.935Z,31.43
2018-11-14T22:17:24.872Z,30.37
2018-11-14T22:19:52.829Z,29.87
2018-11-14T22:22:20.796Z,32.70
2018-11-14T22:24:48.771Z,27.67
2018-11-14T22:27:16.734Z,29.33
2018-11-14T22:29:44.643Z,29.60
2018-11-14T22:32:12.575Z,29.67
2018-11-14T22:34:40.596Z,32.67
2018-11-14T22:37:08.486Z,31.37
2018-11-14T22:39:36.407Z,34.13
2018-11-14T22:42:04.351Z,30.33
2018-11-14T22:44:32.270Z,30.70
2018-11-14T22:47:00.253Z,33.20
2018-11-14T22:49:28.179Z,32.40
2018-11-14T22:51:56.120Z,32.13
2018-11-14T22:54:24.036Z,31.43
2018-11-14T22:56:52.040Z,33.33
2018-11-14T22:59:20.007Z,29.63
2018-11-14T23:01:47.968Z,31.83
2018-11-14T23:04:15.903Z,30.87
2018-11-14T23:06:43.843Z,33.13
2018-11-14T23:09:13.167Z,29.97
2018-11-14T23:11:41.551Z,30.50
2018-11-14T23:14:09.519Z,30.60
2018-11-14T23:16:37.450Z,32.17
2018-11-14T23:19:05.784Z,31.80
2018-11-14T23:21:33.818Z,30.30
2018-11-14T23:24:01.828Z,31.27
2018-11-14T23:26:30.299Z,33.30
2018-11-14T23:28:58.266Z,34.00
2018-11-14T23:31:26.168Z,28.30
2018-11-14T23:33:54.190Z,33.23
2018-11-14T23:36:22.126Z,34.97
2018-11-14T23:38:50.026Z,29.03
2018-11-14T23:41:17.955Z,30.13
2018-11-14T23:43:45.892Z,28.17
2018-11-14T23:46:13.848Z,27.07
2018-11-14T23:48:41.772Z,28.00
2018-11-14T23:51:09.720Z,27.53
2018-11-14T23:53:37.622Z,29.40
2018-11-14T23:56:05.720Z,26.57
2018-11-14T23:58:33.634Z,26.17
